sensor_id;sensor_type;location;lat;lon;timestamp;P1;durP1;ratioP1;P2;durP2;ratioP2
36827;SDS011;22766;48.042;11.192;2023-04-16T00:01:00;5.13;;;2.70;;
36827;SDS011;22766;48.042;11.192;2023-04-16T00:03:27;3.75;;;2.28;;
36827;SDS011;22766;48.042;11.192;2023-04-16T00:05:54;3.05;;;1.92;;
36827;SDS011;22766;48.042;11.192;2023-04-16T00:08:22;5.70;;;2.70;;
36827;SDS011;22766;48.042;11.192;2023-04-16T00:10:51;4.05;;;2.83;;
36827;SDS011;22766;48.042;11.192;2023-04-16T00:13:19;3.70;;;2.30;;
36827;SDS011;22766;48.042;11.192;2023-04-16T00:15:46;5.25;;;2.85;;
36827;SDS011;22766;48.042;11.192;2023-04-16T00:18:13;3.95;;;2.20;;
36827;SDS011;22766;48.042;11.192;2023-04-16T00:20:40;3.17;;;2.40;;
36827;SDS011;22766;48.042;11.192;2023-04-16T00:23:06;4.70;;;2.50;;
36827;SDS011;22766;48.042;11.192;2023-04-16T00:25:33;3.55;;;2.60;;
36827;SDS011;22766;48.042;11.192;2023-04-16T00:28:00;4.35;;;2.25;;
36827;SDS011;22766;48.042;11.192;2023-04-16T00:30:27;4.63;;;2.33;;
36827;SDS011;22766;48.042;11.192;2023-04-16T00:32:53;5.72;;;2.40;;
36827;SDS011;22766;48.042;11.192;2023-04-16T00:35:20;4.70;;;2.45;;
36827;SDS011;22766;48.042;11.192;2023-04-16T00:37:47;3.05;;;1.85;;
36827;SDS011;22766;48.042;11.192;2023-04-16T00:40:14;4.05;;;2.40;;
36827;SDS011;22766;48.042;11.192;2023-04-16T00:42:40;4.20;;;2.40;;
36827;SDS011;22766;48.042;11.192;2023-04-16T00:45:08;3.25;;;2.30;;
36827;SDS011;22766;48.042;11.192;2023-04-16T00:47:35;3.38;;;2.38;;
36827;SDS011;22766;48.042;11.192;2023-04-16T00:50:02;3.80;;;2.28;;
36827;SDS011;22766;48.042;11.192;2023-04-16T00:52:31;2.70;;;1.70;;
36827;SDS011;22766;48.042;11.192;2023-04-16T00:54:58;3.40;;;2.05;;
36827;SDS011;22766;48.042;11.192;2023-04-16T00:57:26;3.83;;;2.30;;
36827;SDS011;22766;48.042;11.192;2023-04-16T00:59:53;3.42;;;2.38;;
36827;SDS011;22766;48.042;11.192;2023-04-16T01:02:21;4.25;;;2.33;;
36827;SDS011;22766;48.042;11.192;2023-04-16T01:04:48;4.70;;;2.60;;
36827;SDS011;22766;48.042;11.192;2023-04-16T01:07:16;3.22;;;1.88;;
36827;SDS011;22766;48.042;11.192;2023-04-16T01:09:42;3.20;;;1.85;;
36827;SDS011;22766;48.042;11.192;2023-04-16T01:12:10;4.05;;;2.15;;
36827;SDS011;22766;48.042;11.192;2023-04-16T01:14:37;2.70;;;1.73;;
36827;SDS011;22766;48.042;11.192;2023-04-16T01:17:03;2.40;;;1.35;;
36827;SDS011;22766;48.042;11.192;2023-04-16T01:19:31;4.80;;;1.83;;
36827;SDS011;22766;48.042;11.192;2023-04-16T01:21:57;3.15;;;1.60;;
36827;SDS011;22766;48.042;11.192;2023-04-16T01:24:24;3.58;;;2.05;;
36827;SDS011;22766;48.042;11.192;2023-04-16T01:26:51;3.13;;;1.95;;
36827;SDS011;22766;48.042;11.192;2023-04-16T01:29:19;2.97;;;1.50;;
36827;SDS011;22766;48.042;11.192;2023-04-16T01:31:47;3.08;;;1.58;;
36827;SDS011;22766;48.042;11.192;2023-04-16T01:34:21;1.63;;;1.40;;
36827;SDS011;22766;48.042;11.192;2023-04-16T01:36:48;4.15;;;1.63;;
36827;SDS011;22766;48.042;11.192;2023-04-16T01:39:15;2.92;;;1.70;;
36827;SDS011;22766;48.042;11.192;2023-04-16T01:41:42;2.78;;;1.63;;
36827;SDS011;22766;48.042;11.192;2023-04-16T01:44:09;3.42;;;1.65;;
36827;SDS011;22766;48.042;11.192;2023-04-16T01:46:36;3.08;;;1.70;;
36827;SDS011;22766;48.042;11.192;2023-04-16T01:49:04;3.17;;;1.85;;
36827;SDS011;22766;48.042;11.192;2023-04-16T01:51:32;2.95;;;1.63;;
36827;SDS011;22766;48.042;11.192;2023-04-16T01:53:59;3.33;;;2.08;;
36827;SDS011;22766;48.042;11.192;2023-04-16T01:56:26;2.58;;;1.55;;
36827;SDS011;22766;48.042;11.192;2023-04-16T01:58:53;1.98;;;1.25;;
36827;SDS011;22766;48.042;11.192;2023-04-16T02:01:21;2.83;;;1.70;;
36827;SDS011;22766;48.042;11.192;2023-04-16T02:03:48;2.15;;;1.45;;
36827;SDS011;22766;48.042;11.192;2023-04-16T02:06:15;1.63;;;1.15;;
36827;SDS011;22766;48.042;11.192;2023-04-16T02:08:41;2.65;;;1.40;;
36827;SDS011;22766;48.042;11.192;2023-04-16T02:11:08;3.78;;;1.90;;
36827;SDS011;22766;48.042;11.192;2023-04-16T02:13:35;5.03;;;2.25;;
36827;SDS011;22766;48.042;11.192;2023-04-16T02:16:02;3.17;;;1.55;;
36827;SDS011;22766;48.042;11.192;2023-04-16T02:18:40;4.55;;;1.98;;
36827;SDS011;22766;48.042;11.192;2023-04-16T02:21:07;3.22;;;1.73;;
36827;SDS011;22766;48.042;11.192;2023-04-16T02:23:34;4.07;;;2.33;;
36827;SDS011;22766;48.042;11.192;2023-04-16T02:26:01;2.45;;;1.55;;
36827;SDS011;22766;48.042;11.192;2023-04-16T02:28:28;2.20;;;1.30;;
36827;SDS011;22766;48.042;11.192;2023-04-16T02:30:55;2.00;;;1.42;;
36827;SDS011;22766;48.042;11.192;2023-04-16T02:33:23;2.10;;;1.48;;
36827;SDS011;22766;48.042;11.192;2023-04-16T02:35:59;2.13;;;1.23;;
36827;SDS011;22766;48.042;11.192;2023-04-16T02:38:26;1.65;;;1.20;;
36827;SDS011;22766;48.042;11.192;2023-04-16T02:40:52;2.85;;;1.35;;
36827;SDS011;22766;48.042;11.192;2023-04-16T02:43:19;1.65;;;1.27;;
36827;SDS011;22766;48.042;11.192;2023-04-16T02:45:45;2.10;;;1.15;;
36827;SDS011;22766;48.042;11.192;2023-04-16T02:48:12;2.85;;;1.77;;
36827;SDS011;22766;48.042;11.192;2023-04-16T02:50:39;2.80;;;1.77;;
36827;SDS011;22766;48.042;11.192;2023-04-16T02:53:06;2.10;;;1.55;;
36827;SDS011;22766;48.042;11.192;2023-04-16T02:55:33;3.20;;;1.77;;
36827;SDS011;22766;48.042;11.192;2023-04-16T02:57:59;2.60;;;1.75;;
36827;SDS011;22766;48.042;11.192;2023-04-16T03:00:27;3.55;;;1.88;;
36827;SDS011;22766;48.042;11.192;2023-04-16T03:02:53;1.83;;;1.27;;
36827;SDS011;22766;48.042;11.192;2023-04-16T03:05:20;3.08;;;1.65;;
36827;SDS011;22766;48.042;11.192;2023-04-16T03:07:47;3.83;;;1.50;;
36827;SDS011;22766;48.042;11.192;2023-04-16T03:10:16;1.65;;;1.40;;
36827;SDS011;22766;48.042;11.192;2023-04-16T03:12:43;2.22;;;1.38;;
36827;SDS011;22766;48.042;11.192;2023-04-16T03:15:09;3.05;;;1.65;;
36827;SDS011;22766;48.042;11.192;2023-04-16T03:17:36;2.92;;;1.98;;
36827;SDS011;22766;48.042;11.192;2023-04-16T03:20:03;3.00;;;1.75;;
36827;SDS011;22766;48.042;11.192;2023-04-16T03:22:30;2.63;;;2.13;;
36827;SDS011;22766;48.042;11.192;2023-04-16T03:24:57;2.30;;;1.30;;
36827;SDS011;22766;48.042;11.192;2023-04-16T03:27:23;2.00;;;1.42;;
36827;SDS011;22766;48.042;11.192;2023-04-16T03:29:51;2.55;;;1.63;;
36827;SDS011;22766;48.042;11.192;2023-04-16T03:32:17;2.75;;;1.63;;
36827;SDS011;22766;48.042;11.192;2023-04-16T03:34:44;2.15;;;1.80;;
36827;SDS011;22766;48.042;11.192;2023-04-16T03:37:11;3.20;;;1.35;;
36827;SDS011;22766;48.042;11.192;2023-04-16T03:39:38;3.40;;;1.90;;
36827;SDS011;22766;48.042;11.192;2023-04-16T03:42:04;2.30;;;1.50;;
36827;SDS011;22766;48.042;11.192;2023-04-16T03:44:32;2.05;;;1.50;;
36827;SDS011;22766;48.042;11.192;2023-04-16T03:46:59;2.83;;;1.67;;
36827;SDS011;22766;48.042;11.192;2023-04-16T03:49:26;2.72;;;1.77;;
36827;SDS011;22766;48.042;11.192;2023-04-16T03:51:53;2.03;;;1.50;;
36827;SDS011;22766;48.042;11.192;2023-04-16T03:54:19;2.70;;;1.65;;
36827;SDS011;22766;48.042;11.192;2023-04-16T03:56:55;2.00;;;1.40;;
36827;SDS011;22766;48.042;11.192;2023-04-16T03:59:22;2.55;;;1.50;;
36827;SDS011;22766;48.042;11.192;2023-04-16T04:01:49;2.92;;;1.10;;
36827;SDS011;22766;48.042;11.192;2023-04-16T04:04:16;1.90;;;1.25;;
36827;SDS011;22766;48.042;11.192;2023-04-16T04:06:44;2.30;;;1.38;;
36827;SDS011;22766;48.042;11.192;2023-04-16T04:09:11;3.72;;;1.15;;
36827;SDS011;22766;48.042;11.192;2023-04-16T04:11:39;1.67;;;1.17;;
36827;SDS011;22766;48.042;11.192;2023-04-16T04:14:05;2.70;;;1.52;;
36827;SDS011;22766;48.042;11.192;2023-04-16T04:16:33;2.17;;;1.33;;
36827;SDS011;22766;48.042;11.192;2023-04-16T04:19:00;1.30;;;1.17;;
36827;SDS011;22766;48.042;11.192;2023-04-16T04:21:27;2.92;;;1.58;;
36827;SDS011;22766;48.042;11.192;2023-04-16T04:23:54;2.25;;;1.20;;
36827;SDS011;22766;48.042;11.192;2023-04-16T04:26:21;2.80;;;1.42;;
36827;SDS011;22766;48.042;11.192;2023-04-16T04:28:49;2.80;;;1.50;;
36827;SDS011;22766;48.042;11.192;2023-04-16T04:31:17;2.53;;;1.50;;
36827;SDS011;22766;48.042;11.192;2023-04-16T04:33:43;3.65;;;1.20;;
36827;SDS011;22766;48.042;11.192;2023-04-16T04:36:11;1.42;;;1.05;;
36827;SDS011;22766;48.042;11.192;2023-04-16T04:38:37;2.70;;;1.35;;
36827;SDS011;22766;48.042;11.192;2023-04-16T04:41:04;2.33;;;1.23;;
36827;SDS011;22766;48.042;11.192;2023-04-16T04:43:34;1.80;;;1.27;;
36827;SDS011;22766;48.042;11.192;2023-04-16T04:46:01;1.40;;;1.00;;
36827;SDS011;22766;48.042;11.192;2023-04-16T04:48:29;2.15;;;1.00;;
36827;SDS011;22766;48.042;11.192;2023-04-16T04:50:56;1.13;;;0.80;;
36827;SDS011;22766;48.042;11.192;2023-04-16T04:53:22;1.17;;;0.77;;
36827;SDS011;22766;48.042;11.192;2023-04-16T04:55:49;0.75;;;0.75;;
36827;SDS011;22766;48.042;11.192;2023-04-16T04:58:22;1.20;;;0.80;;
36827;SDS011;22766;48.042;11.192;2023-04-16T05:00:49;1.65;;;0.88;;
36827;SDS011;22766;48.042;11.192;2023-04-16T05:03:20;1.08;;;0.82;;
36827;SDS011;22766;48.042;11.192;2023-04-16T05:05:47;1.05;;;0.95;;
36827;SDS011;22766;48.042;11.192;2023-04-16T05:08:14;0.85;;;0.63;;
36827;SDS011;22766;48.042;11.192;2023-04-16T05:10:40;0.93;;;0.70;;
36827;SDS011;22766;48.042;11.192;2023-04-16T05:13:07;0.93;;;0.60;;
36827;SDS011;22766;48.042;11.192;2023-04-16T05:15:34;0.82;;;0.60;;
36827;SDS011;22766;48.042;11.192;2023-04-16T05:18:01;0.57;;;0.57;;
36827;SDS011;22766;48.042;11.192;2023-04-16T05:20:28;1.10;;;0.70;;
36827;SDS011;22766;48.042;11.192;2023-04-16T05:22:54;0.40;;;0.40;;
36827;SDS011;22766;48.042;11.192;2023-04-16T05:25:21;0.98;;;0.68;;
36827;SDS011;22766;48.042;11.192;2023-04-16T05:27:47;0.50;;;0.50;;
36827;SDS011;22766;48.042;11.192;2023-04-16T05:30:14;0.60;;;0.60;;
36827;SDS011;22766;48.042;11.192;2023-04-16T05:32:41;2.22;;;0.73;;
36827;SDS011;22766;48.042;11.192;2023-04-16T05:35:08;0.80;;;0.60;;
36827;SDS011;22766;48.042;11.192;2023-04-16T05:37:35;0.50;;;0.50;;
36827;SDS011;22766;48.042;11.192;2023-04-16T05:40:02;0.90;;;0.63;;
36827;SDS011;22766;48.042;11.192;2023-04-16T05:42:29;1.63;;;0.60;;
36827;SDS011;22766;48.042;11.192;2023-04-16T05:44:56;1.42;;;0.50;;
36827;SDS011;22766;48.042;11.192;2023-04-16T05:47:23;0.88;;;0.65;;
36827;SDS011;22766;48.042;11.192;2023-04-16T05:49:50;1.25;;;0.63;;
36827;SDS011;22766;48.042;11.192;2023-04-16T05:52:16;1.70;;;0.85;;
36827;SDS011;22766;48.042;11.192;2023-04-16T05:54:43;1.85;;;1.13;;
36827;SDS011;22766;48.042;11.192;2023-04-16T05:57:10;1.23;;;0.82;;
36827;SDS011;22766;48.042;11.192;2023-04-16T05:59:37;0.70;;;0.50;;
36827;SDS011;22766;48.042;11.192;2023-04-16T06:02:03;2.92;;;0.90;;
36827;SDS011;22766;48.042;11.192;2023-04-16T06:04:30;0.73;;;0.60;;
36827;SDS011;22766;48.042;11.192;2023-04-16T06:06:57;2.90;;;1.08;;
36827;SDS011;22766;48.042;11.192;2023-04-16T06:09:24;4.00;;;1.73;;
36827;SDS011;22766;48.042;11.192;2023-04-16T06:11:50;2.88;;;1.30;;
36827;SDS011;22766;48.042;11.192;2023-04-16T06:14:17;1.17;;;0.60;;
36827;SDS011;22766;48.042;11.192;2023-04-16T06:16:44;0.50;;;0.50;;
36827;SDS011;22766;48.042;11.192;2023-04-16T06:19:11;0.95;;;0.43;;
36827;SDS011;22766;48.042;11.192;2023-04-16T06:21:38;1.10;;;0.60;;
36827;SDS011;22766;48.042;11.192;2023-04-16T06:24:05;2.03;;;0.40;;
36827;SDS011;22766;48.042;11.192;2023-04-16T06:26:32;0.55;;;0.47;;
36827;SDS011;22766;48.042;11.192;2023-04-16T06:28:58;0.52;;;0.50;;
36827;SDS011;22766;48.042;11.192;2023-04-16T06:31:25;0.95;;;0.57;;
36827;SDS011;22766;48.042;11.192;2023-04-16T06:33:52;0.68;;;0.60;;
36827;SDS011;22766;48.042;11.192;2023-04-16T06:36:19;0.95;;;0.45;;
36827;SDS011;22766;48.042;11.192;2023-04-16T06:38:46;0.95;;;0.68;;
36827;SDS011;22766;48.042;11.192;2023-04-16T06:41:13;1.00;;;0.70;;
36827;SDS011;22766;48.042;11.192;2023-04-16T06:43:40;0.57;;;0.50;;
36827;SDS011;22766;48.042;11.192;2023-04-16T06:46:06;1.08;;;0.50;;
36827;SDS011;22766;48.042;11.192;2023-04-16T06:48:33;3.00;;;0.60;;
36827;SDS011;22766;48.042;11.192;2023-04-16T06:51:00;1.33;;;0.60;;
36827;SDS011;22766;48.042;11.192;2023-04-16T06:53:27;0.60;;;0.50;;
36827;SDS011;22766;48.042;11.192;2023-04-16T06:55:53;0.50;;;0.50;;
36827;SDS011;22766;48.042;11.192;2023-04-16T06:58:21;0.40;;;0.40;;
36827;SDS011;22766;48.042;11.192;2023-04-16T07:00:47;0.25;;;0.20;;
36827;SDS011;22766;48.042;11.192;2023-04-16T07:03:14;0.30;;;0.30;;
36827;SDS011;22766;48.042;11.192;2023-04-16T07:05:41;1.02;;;0.30;;
36827;SDS011;22766;48.042;11.192;2023-04-16T07:08:08;0.63;;;0.45;;
36827;SDS011;22766;48.042;11.192;2023-04-16T07:10:35;0.20;;;0.20;;
36827;SDS011;22766;48.042;11.192;2023-04-16T07:13:01;1.17;;;0.40;;
36827;SDS011;22766;48.042;11.192;2023-04-16T07:15:28;0.20;;;0.20;;
36827;SDS011;22766;48.042;11.192;2023-04-16T07:17:55;0.45;;;0.30;;
36827;SDS011;22766;48.042;11.192;2023-04-16T07:20:22;1.58;;;0.60;;
36827;SDS011;22766;48.042;11.192;2023-04-16T07:22:49;2.10;;;1.02;;
36827;SDS011;22766;48.042;11.192;2023-04-16T07:25:15;1.15;;;0.40;;
36827;SDS011;22766;48.042;11.192;2023-04-16T07:27:42;0.57;;;0.32;;
36827;SDS011;22766;48.042;11.192;2023-04-16T07:30:09;0.82;;;0.60;;
36827;SDS011;22766;48.042;11.192;2023-04-16T07:32:36;1.17;;;0.50;;
36827;SDS011;22766;48.042;11.192;2023-04-16T07:35:03;1.00;;;0.40;;
36827;SDS011;22766;48.042;11.192;2023-04-16T07:37:30;0.47;;;0.47;;
36827;SDS011;22766;48.042;11.192;2023-04-16T07:39:57;0.57;;;0.40;;
36827;SDS011;22766;48.042;11.192;2023-04-16T07:42:26;1.00;;;0.60;;
36827;SDS011;22766;48.042;11.192;2023-04-16T07:44:53;0.73;;;0.50;;
36827;SDS011;22766;48.042;11.192;2023-04-16T07:47:20;0.85;;;0.40;;
36827;SDS011;22766;48.042;11.192;2023-04-16T07:49:48;0.32;;;0.30;;
36827;SDS011;22766;48.042;11.192;2023-04-16T07:52:15;0.40;;;0.40;;
36827;SDS011;22766;48.042;11.192;2023-04-16T07:54:42;0.20;;;0.20;;
36827;SDS011;22766;48.042;11.192;2023-04-16T07:57:10;0.82;;;0.30;;
36827;SDS011;22766;48.042;11.192;2023-04-16T07:59:37;0.93;;;0.40;;
36827;SDS011;22766;48.042;11.192;2023-04-16T08:02:04;0.30;;;0.30;;
36827;SDS011;22766;48.042;11.192;2023-04-16T08:04:31;0.60;;;0.20;;
36827;SDS011;22766;48.042;11.192;2023-04-16T08:06:59;0.17;;;0.17;;
36827;SDS011;22766;48.042;11.192;2023-04-16T08:09:26;0.30;;;0.25;;
36827;SDS011;22766;48.042;11.192;2023-04-16T08:11:54;0.43;;;0.20;;
36827;SDS011;22766;48.042;11.192;2023-04-16T08:14:20;0.32;;;0.28;;
36827;SDS011;22766;48.042;11.192;2023-04-16T08:16:47;0.20;;;0.20;;
36827;SDS011;22766;48.042;11.192;2023-04-16T08:19:14;0.20;;;0.13;;
36827;SDS011;22766;48.042;11.192;2023-04-16T08:21:41;1.13;;;0.30;;
36827;SDS011;22766;48.042;11.192;2023-04-16T08:24:09;0.22;;;0.20;;
36827;SDS011;22766;48.042;11.192;2023-04-16T08:26:35;1.40;;;0.80;;
36827;SDS011;22766;48.042;11.192;2023-04-16T08:29:02;1.25;;;0.80;;
36827;SDS011;22766;48.042;11.192;2023-04-16T08:31:29;0.63;;;0.30;;
36827;SDS011;22766;48.042;11.192;2023-04-16T08:33:57;0.85;;;0.50;;
36827;SDS011;22766;48.042;11.192;2023-04-16T08:36:23;0.30;;;0.30;;
36827;SDS011;22766;48.042;11.192;2023-04-16T08:38:50;0.22;;;0.20;;
36827;SDS011;22766;48.042;11.192;2023-04-16T08:41:17;0.50;;;0.47;;
36827;SDS011;22766;48.042;11.192;2023-04-16T08:43:47;0.22;;;0.22;;
36827;SDS011;22766;48.042;11.192;2023-04-16T08:46:16;2.47;;;0.60;;
36827;SDS011;22766;48.042;11.192;2023-04-16T08:48:48;0.50;;;0.40;;
36827;SDS011;22766;48.042;11.192;2023-04-16T08:51:19;0.50;;;0.32;;
36827;SDS011;22766;48.042;11.192;2023-04-16T08:53:52;0.63;;;0.35;;
36827;SDS011;22766;48.042;11.192;2023-04-16T08:56:20;0.60;;;0.50;;
36827;SDS011;22766;48.042;11.192;2023-04-16T08:58:49;0.55;;;0.32;;
36827;SDS011;22766;48.042;11.192;2023-04-16T09:01:17;0.68;;;0.57;;
36827;SDS011;22766;48.042;11.192;2023-04-16T09:03:46;1.10;;;0.40;;
36827;SDS011;22766;48.042;11.192;2023-04-16T09:06:14;3.30;;;1.08;;
36827;SDS011;22766;48.042;11.192;2023-04-16T09:08:44;1.83;;;1.15;;
36827;SDS011;22766;48.042;11.192;2023-04-16T09:11:16;0.98;;;0.50;;
36827;SDS011;22766;48.042;11.192;2023-04-16T09:13:44;0.93;;;0.70;;
36827;SDS011;22766;48.042;11.192;2023-04-16T09:16:11;0.45;;;0.40;;
36827;SDS011;22766;48.042;11.192;2023-04-16T09:18:39;0.40;;;0.30;;
36827;SDS011;22766;48.042;11.192;2023-04-16T09:21:08;1.02;;;0.50;;
36827;SDS011;22766;48.042;11.192;2023-04-16T09:23:36;0.70;;;0.40;;
36827;SDS011;22766;48.042;11.192;2023-04-16T09:26:04;0.82;;;0.40;;
36827;SDS011;22766;48.042;11.192;2023-04-16T09:28:44;1.60;;;1.08;;
36827;SDS011;22766;48.042;11.192;2023-04-16T09:31:12;0.75;;;0.63;;
36827;SDS011;22766;48.042;11.192;2023-04-16T09:33:41;0.25;;;0.20;;
36827;SDS011;22766;48.042;11.192;2023-04-16T09:36:09;0.20;;;0.15;;
36827;SDS011;22766;48.042;11.192;2023-04-16T09:38:49;0.30;;;0.30;;
36827;SDS011;22766;48.042;11.192;2023-04-16T09:41:17;0.30;;;0.20;;
36827;SDS011;22766;48.042;11.192;2023-04-16T09:43:48;0.17;;;0.17;;
36827;SDS011;22766;48.042;11.192;2023-04-16T09:46:24;0.90;;;0.50;;
36827;SDS011;22766;48.042;11.192;2023-04-16T09:49:07;0.30;;;0.30;;
36827;SDS011;22766;48.042;11.192;2023-04-16T09:51:41;1.15;;;0.50;;
36827;SDS011;22766;48.042;11.192;2023-04-16T09:54:09;0.68;;;0.30;;
36827;SDS011;22766;48.042;11.192;2023-04-16T09:56:40;0.20;;;0.20;;
36827;SDS011;22766;48.042;11.192;2023-04-16T10:01:44;1.45;;;0.13;;
36827;SDS011;22766;48.042;11.192;2023-04-16T10:04:12;0.15;;;0.15;;
36827;SDS011;22766;48.042;11.192;2023-04-16T10:06:39;0.43;;;0.10;;
36827;SDS011;22766;48.042;11.192;2023-04-16T10:09:06;0.22;;;0.20;;
36827;SDS011;22766;48.042;11.192;2023-04-16T10:11:34;0.52;;;0.20;;
36827;SDS011;22766;48.042;11.192;2023-04-16T10:14:01;0.30;;;0.30;;
36827;SDS011;22766;48.042;11.192;2023-04-16T10:16:28;0.10;;;0.10;;
36827;SDS011;22766;48.042;11.192;2023-04-16T10:18:56;0.30;;;0.30;;
36827;SDS011;22766;48.042;11.192;2023-04-16T10:21:24;0.43;;;0.20;;
36827;SDS011;22766;48.042;11.192;2023-04-16T10:23:59;0.55;;;0.20;;
36827;SDS011;22766;48.042;11.192;2023-04-16T10:26:28;0.57;;;0.25;;
36827;SDS011;22766;48.042;11.192;2023-04-16T10:28:56;0.63;;;0.35;;
36827;SDS011;22766;48.042;11.192;2023-04-16T10:31:24;0.93;;;0.30;;
36827;SDS011;22766;48.042;11.192;2023-04-16T10:33:52;0.20;;;0.20;;
36827;SDS011;22766;48.042;11.192;2023-04-16T10:36:24;1.33;;;0.30;;
36827;SDS011;22766;48.042;11.192;2023-04-16T10:38:58;0.20;;;0.20;;
36827;SDS011;22766;48.042;11.192;2023-04-16T10:41:26;0.57;;;0.28;;
36827;SDS011;22766;48.042;11.192;2023-04-16T10:44:00;0.82;;;0.43;;
36827;SDS011;22766;48.042;11.192;2023-04-16T10:46:38;0.80;;;0.55;;
36827;SDS011;22766;48.042;11.192;2023-04-16T10:49:16;1.33;;;0.60;;
36827;SDS011;22766;48.042;11.192;2023-04-16T10:51:59;0.95;;;0.50;;
36827;SDS011;22766;48.042;11.192;2023-04-16T10:54:29;0.80;;;0.20;;
36827;SDS011;22766;48.042;11.192;2023-04-16T10:56:58;2.90;;;0.88;;
36827;SDS011;22766;48.042;11.192;2023-04-16T10:59:30;3.22;;;0.80;;
36827;SDS011;22766;48.042;11.192;2023-04-16T11:02:05;0.30;;;0.25;;
36827;SDS011;22766;48.042;11.192;2023-04-16T11:04:35;0.75;;;0.30;;
36827;SDS011;22766;48.042;11.192;2023-04-16T11:12:16;0.60;;;0.30;;
36827;SDS011;22766;48.042;11.192;2023-04-16T11:14:51;0.98;;;0.52;;
36827;SDS011;22766;48.042;11.192;2023-04-16T11:17:20;0.43;;;0.20;;
36827;SDS011;22766;48.042;11.192;2023-04-16T11:19:47;0.20;;;0.20;;
36827;SDS011;22766;48.042;11.192;2023-04-16T11:22:15;0.10;;;0.10;;
36827;SDS011;22766;48.042;11.192;2023-04-16T11:24:43;0.35;;;0.30;;
36827;SDS011;22766;48.042;11.192;2023-04-16T11:27:11;0.40;;;0.30;;
36827;SDS011;22766;48.042;11.192;2023-04-16T11:29:39;0.82;;;0.40;;
36827;SDS011;22766;48.042;11.192;2023-04-16T11:32:05;0.45;;;0.30;;
36827;SDS011;22766;48.042;11.192;2023-04-16T11:34:33;0.20;;;0.20;;
36827;SDS011;22766;48.042;11.192;2023-04-16T11:36:59;1.25;;;0.30;;
36827;SDS011;22766;48.042;11.192;2023-04-16T11:39:26;2.90;;;0.25;;
36827;SDS011;22766;48.042;11.192;2023-04-16T11:41:53;1.05;;;0.40;;
36827;SDS011;22766;48.042;11.192;2023-04-16T11:44:25;0.35;;;0.20;;
36827;SDS011;22766;48.042;11.192;2023-04-16T11:46:53;0.30;;;0.30;;
36827;SDS011;22766;48.042;11.192;2023-04-16T11:49:26;0.55;;;0.30;;
36827;SDS011;22766;48.042;11.192;2023-04-16T11:51:56;2.08;;;0.63;;
36827;SDS011;22766;48.042;11.192;2023-04-16T11:54:23;3.55;;;0.40;;
36827;SDS011;22766;48.042;11.192;2023-04-16T11:56:52;0.52;;;0.30;;
36827;SDS011;22766;48.042;11.192;2023-04-16T11:59:19;0.75;;;0.38;;
36827;SDS011;22766;48.042;11.192;2023-04-16T12:01:50;0.85;;;0.32;;
36827;SDS011;22766;48.042;11.192;2023-04-16T12:04:19;1.33;;;0.38;;
36827;SDS011;22766;48.042;11.192;2023-04-16T12:07:07;0.47;;;0.40;;
36827;SDS011;22766;48.042;11.192;2023-04-16T12:09:37;0.57;;;0.40;;
36827;SDS011;22766;48.042;11.192;2023-04-16T12:12:27;0.65;;;0.30;;
36827;SDS011;22766;48.042;11.192;2023-04-16T12:14:57;0.73;;;0.20;;
36827;SDS011;22766;48.042;11.192;2023-04-16T12:17:25;0.60;;;0.25;;
36827;SDS011;22766;48.042;11.192;2023-04-16T12:19:59;0.30;;;0.22;;
36827;SDS011;22766;48.042;11.192;2023-04-16T12:22:28;0.30;;;0.30;;
36827;SDS011;22766;48.042;11.192;2023-04-16T12:25:03;0.52;;;0.40;;
36827;SDS011;22766;48.042;11.192;2023-04-16T12:27:42;0.30;;;0.30;;
36827;SDS011;22766;48.042;11.192;2023-04-16T12:30:18;0.50;;;0.30;;
36827;SDS011;22766;48.042;11.192;2023-04-16T12:32:48;1.10;;;0.50;;
36827;SDS011;22766;48.042;11.192;2023-04-16T12:35:32;0.35;;;0.35;;
36827;SDS011;22766;48.042;11.192;2023-04-16T12:37:59;0.52;;;0.22;;
36827;SDS011;22766;48.042;11.192;2023-04-16T12:40:26;0.45;;;0.20;;
36827;SDS011;22766;48.042;11.192;2023-04-16T12:42:53;0.30;;;0.30;;
36827;SDS011;22766;48.042;11.192;2023-04-16T12:45:20;0.20;;;0.20;;
36827;SDS011;22766;48.042;11.192;2023-04-16T12:47:47;0.73;;;0.40;;
36827;SDS011;22766;48.042;11.192;2023-04-16T12:50:15;0.50;;;0.32;;
36827;SDS011;22766;48.042;11.192;2023-04-16T12:52:43;0.22;;;0.20;;
36827;SDS011;22766;48.042;11.192;2023-04-16T12:55:10;0.40;;;0.40;;
36827;SDS011;22766;48.042;11.192;2023-04-16T12:57:37;0.50;;;0.20;;
36827;SDS011;22766;48.042;11.192;2023-04-16T13:00:04;0.52;;;0.30;;
36827;SDS011;22766;48.042;11.192;2023-04-16T13:02:31;0.77;;;0.30;;
36827;SDS011;22766;48.042;11.192;2023-04-16T13:04:58;0.65;;;0.32;;
36827;SDS011;22766;48.042;11.192;2023-04-16T13:07:25;0.30;;;0.25;;
36827;SDS011;22766;48.042;11.192;2023-04-16T13:09:53;0.75;;;0.40;;
36827;SDS011;22766;48.042;11.192;2023-04-16T13:12:20;0.95;;;0.40;;
36827;SDS011;22766;48.042;11.192;2023-04-16T13:14:46;1.50;;;0.43;;
36827;SDS011;22766;48.042;11.192;2023-04-16T13:17:13;1.58;;;0.40;;
36827;SDS011;22766;48.042;11.192;2023-04-16T13:19:40;0.88;;;0.50;;
36827;SDS011;22766;48.042;11.192;2023-04-16T13:22:07;0.88;;;0.30;;
36827;SDS011;22766;48.042;11.192;2023-04-16T13:24:34;0.60;;;0.30;;
36827;SDS011;22766;48.042;11.192;2023-04-16T13:27:01;0.60;;;0.50;;
36827;SDS011;22766;48.042;11.192;2023-04-16T13:29:27;0.20;;;0.20;;
36827;SDS011;22766;48.042;11.192;2023-04-16T13:31:55;0.25;;;0.25;;
36827;SDS011;22766;48.042;11.192;2023-04-16T13:34:22;0.63;;;0.30;;
36827;SDS011;22766;48.042;11.192;2023-04-16T13:36:49;0.20;;;0.20;;
36827;SDS011;22766;48.042;11.192;2023-04-16T13:39:16;0.30;;;0.30;;
36827;SDS011;22766;48.042;11.192;2023-04-16T13:41:43;2.72;;;0.50;;
36827;SDS011;22766;48.042;11.192;2023-04-16T13:44:09;0.80;;;0.20;;
36827;SDS011;22766;48.042;11.192;2023-04-16T13:46:36;0.50;;;0.20;;
36827;SDS011;22766;48.042;11.192;2023-04-16T13:49:03;0.13;;;0.13;;
36827;SDS011;22766;48.042;11.192;2023-04-16T13:51:30;0.30;;;0.30;;
36827;SDS011;22766;48.042;11.192;2023-04-16T13:53:57;0.20;;;0.20;;
36827;SDS011;22766;48.042;11.192;2023-04-16T13:56:24;0.43;;;0.20;;
36827;SDS011;22766;48.042;11.192;2023-04-16T13:58:50;0.32;;;0.22;;
36827;SDS011;22766;48.042;11.192;2023-04-16T14:01:17;0.38;;;0.30;;
36827;SDS011;22766;48.042;11.192;2023-04-16T14:03:44;0.25;;;0.22;;
36827;SDS011;22766;48.042;11.192;2023-04-16T14:06:11;0.93;;;0.50;;
36827;SDS011;22766;48.042;11.192;2023-04-16T14:08:39;0.63;;;0.40;;
36827;SDS011;22766;48.042;11.192;2023-04-16T14:11:05;0.40;;;0.40;;
36827;SDS011;22766;48.042;11.192;2023-04-16T14:13:32;0.32;;;0.32;;
36827;SDS011;22766;48.042;11.192;2023-04-16T14:16:01;0.35;;;0.30;;
36827;SDS011;22766;48.042;11.192;2023-04-16T14:18:28;0.70;;;0.43;;
36827;SDS011;22766;48.042;11.192;2023-04-16T14:20:54;0.77;;;0.47;;
36827;SDS011;22766;48.042;11.192;2023-04-16T14:23:21;0.88;;;0.50;;
36827;SDS011;22766;48.042;11.192;2023-04-16T14:25:48;0.80;;;0.43;;
36827;SDS011;22766;48.042;11.192;2023-04-16T14:28:15;0.40;;;0.20;;
36827;SDS011;22766;48.042;11.192;2023-04-16T14:30:42;1.60;;;0.70;;
36827;SDS011;22766;48.042;11.192;2023-04-16T14:33:09;1.02;;;0.70;;
36827;SDS011;22766;48.042;11.192;2023-04-16T14:35:36;1.35;;;0.63;;
36827;SDS011;22766;48.042;11.192;2023-04-16T14:38:03;2.08;;;0.65;;
36827;SDS011;22766;48.042;11.192;2023-04-16T14:40:29;1.00;;;0.43;;
36827;SDS011;22766;48.042;11.192;2023-04-16T14:42:56;1.88;;;0.98;;
36827;SDS011;22766;48.042;11.192;2023-04-16T14:45:23;2.17;;;1.10;;